Accueil
METAR-TAF:

METAR-TAF

Aéroports :

Fort Richardson, Alaska, États-Unis

latitude: 61-15-45N, longitude: 149-39-17W, altitude: 115 m

Observation

Le bulletin a été fait il y a 9 minutes, à 21:48 UTC
Vent 21 kt de sud/sud-est avec des rafales jusqu'à 28 kt
Température 9°C
Humidité 46%
Pression 986 hPa
Visibilité: 16.1 km
Ciel couvert à une hauteur de 11000 ft

METAR: PAFR 202148Z AUTO 15021G28KT 10SM OVC110 09/M02 A2911 RMK AO2 WSHFT 40 SLP864

Heure: 12:57 (21:57 UTC)


TAF: absent

Observations et prévisions météorologiques de plus de 4000 aéroports (messages METAR et TAF).

Les stations disponibles sont représentées par des disques jaunes et rouges sur la carte.

Passer la souris dessus pour voir le nom de la station.

Cliquer dessus pour voir les observations et prévisions météorologiques.

Pour changer de carte: cliquez sur les boutons verts avec une croix noire pour zoomer, sur le bouton vert avec un tiret pour effectuer un zoom arrière, ou sur les flèches vertes pour les cartes adjacentes.


METAR-TAF: